Time;durP1;ratioP1;P1;durP2;ratioP2;P2;SDS_P1;SDS_P2;PMS_P1;PMS_P2;Temp;Humidity;BMP_temperature;BMP_pressure;BME280_temperature;BME280_humidity;BME280_pressure;Samples;Min_cycle;Max_cycle;Signal;HPM_P1;HPM_P2
2022/10/25 00:01:34;;;;;;;4.93;3.23;;;-13.20;99.90;;;;;;5034764;28;20224;-72
2022/10/25 00:04:00;;;;;;;8.20;1.80;;;-12.30;99.90;;;;;;5034520;28;20199;-74
2022/10/25 00:06:26;;;;;;;10.80;2.53;;;-13.40;99.90;;;;;;5033834;28;20188;-74
2022/10/25 00:08:52;;;;;;;3.97;1.97;;;-14.00;99.90;;;;;;5052624;28;20184;-74
2022/10/25 00:11:26;;;;;;;9.50;2.40;;;-13.80;99.90;;;;;;5050246;28;20181;-74
2022/10/25 00:13:54;;;;;;;6.93;2.13;;;-13.30;99.90;;;;;;5028169;28;20176;-76
2022/10/25 00:16:23;;;;;;;8.53;2.23;;;-13.00;99.90;;;;;;5039409;28;20276;-74
2022/10/25 00:18:49;;;;;;;6.80;2.40;;;-12.30;99.90;;;;;;5039549;28;20603;-76
2022/10/25 00:21:15;;;;;;;5.40;2.23;;;-11.20;99.90;;;;;;5034289;28;20616;-72
2022/10/25 00:23:41;;;;;;;4.80;1.90;;;-9.80;99.90;;;;;;5030233;28;20187;-75
2022/10/25 00:26:09;;;;;;;8.23;3.63;;;-8.80;99.90;;;;;;5037913;28;20177;-73
2022/10/25 00:28:35;;;;;;;9.47;1.97;;;-10.20;99.90;;;;;;5029082;28;20541;-73
2022/10/25 00:31:03;;;;;;;6.20;2.00;;;-10.10;99.90;;;;;;5027965;28;20177;-75
2022/10/25 00:33:32;;;;;;;4.63;2.40;;;-12.00;99.90;;;;;;5028779;28;20315;-74
2022/10/25 00:36:16;;;;;;;11.97;2.13;;;-13.20;99.90;;;;;;5032681;28;20247;-73
2022/10/25 00:38:43;;;;;;;4.07;2.57;;;-10.70;99.90;;;;;;5039010;28;20176;-73
2022/10/25 00:41:10;;;;;;;6.37;1.83;;;-9.70;99.90;;;;;;5049773;28;20757;-74
2022/10/25 00:43:40;;;;;;;5.27;1.77;;;-12.60;99.90;;;;;;5038786;28;20535;-71
2022/10/25 00:46:20;;;;;;;8.77;2.67;;;-12.20;99.90;;;;;;5033681;28;20180;-72
2022/10/25 00:49:18;;;;;;;8.30;2.20;;;-11.40;99.90;;;;;;5032417;28;20191;-74
2022/10/25 00:51:43;;;;;;;8.73;1.80;;;-13.10;99.90;;;;;;5027664;28;20204;-74
2022/10/25 00:54:14;;;;;;;13.97;3.20;;;-10.40;99.90;;;;;;5047291;28;20185;-73
2022/10/25 00:56:44;;;;;;;14.67;2.37;;;-12.00;99.90;;;;;;5038687;28;20662;-75
2022/10/25 00:59:13;;;;;;;8.90;3.00;;;-13.10;99.90;;;;;;5038592;28;20262;-74
2022/10/25 01:01:40;;;;;;;6.53;1.93;;;-11.30;99.90;;;;;;5038494;28;20216;-73
2022/10/25 01:04:10;;;;;;;5.70;1.97;;;-13.90;99.90;;;;;;5032655;28;20202;-74
2022/10/25 01:06:46;;;;;;;11.40;2.97;;;-11.20;99.90;;;;;;5038330;28;20185;-71
2022/10/25 01:09:17;;;;;;;5.67;2.47;;;-12.50;99.90;;;;;;5038410;28;20192;-71
2022/10/25 01:11:43;;;;;;;7.63;2.60;;;-11.10;99.90;;;;;;5030544;28;20185;-73
2022/10/25 01:14:12;;;;;;;5.23;2.17;;;-10.00;99.90;;;;;;5026486;28;20733;-72
2022/10/25 01:16:50;;;;;;;3.60;1.67;;;-10.60;99.90;;;;;;5029678;28;20184;-73
2022/10/25 01:19:34;;;;;;;5.63;2.33;;;-9.90;99.90;;;;;;5019103;28;20203;-72
2022/10/25 01:22:03;;;;;;;7.13;2.20;;;-10.10;99.90;;;;;;5034000;28;20209;-72
2022/10/25 01:24:53;;;;;;;9.83;2.67;;;-11.50;99.90;;;;;;5053351;28;20573;-72
2022/10/25 01:27:38;;;;;;;4.97;2.17;;;-11.40;99.90;;;;;;5032970;28;20584;-70
2022/10/25 01:30:15;;;;;;;4.90;1.57;;;-12.80;99.90;;;;;;5028328;28;20188;-71
2022/10/25 01:32:44;;;;;;;8.77;3.20;;;-10.30;99.90;;;;;;5046875;28;20195;-70
2022/10/25 01:35:19;;;;;;;10.80;2.20;;;-9.30;99.90;;;;;;5031152;28;20236;-71
2022/10/25 01:38:13;;;;;;;9.50;2.13;;;-9.80;99.90;;;;;;5037673;28;20237;-71
2022/10/25 01:41:02;;;;;;;1.90;1.33;;;-10.20;99.90;;;;;;5035316;28;20586;-70
2022/10/25 01:43:33;;;;;;;12.60;2.93;;;-9.10;99.90;;;;;;5035042;28;20250;-70
2022/10/25 01:46:17;;;;;;;6.50;2.23;;;-9.10;99.90;;;;;;5020016;28;20260;-72
2022/10/25 01:48:47;;;;;;;5.17;1.43;;;-9.50;99.90;;;;;;5019374;28;20252;-72
2022/10/25 01:51:16;;;;;;;3.30;2.10;;;-9.20;99.90;;;;;;5034818;28;20219;-75
2022/10/25 01:53:50;;;;;;;6.60;2.10;;;-11.00;99.90;;;;;;5037453;28;20231;-75
2022/10/25 01:56:22;;;;;;;12.13;2.20;;;-12.40;99.90;;;;;;5036594;28;20262;-73
2022/10/25 01:58:59;;;;;;;3.67;2.43;;;-13.50;99.90;;;;;;5032083;28;20180;-72
2022/10/25 02:01:40;;;;;;;11.83;2.53;;;-14.10;99.90;;;;;;5032722;28;20220;-73
2022/10/25 02:04:15;;;;;;;9.80;2.67;;;-12.80;99.90;;;;;;5024012;28;20488;-74
2022/10/25 02:06:59;;;;;;;8.40;2.60;;;-14.30;99.90;;;;;;5035801;28;20584;-73
2022/10/25 02:10:00;;;;;;;5.83;2.10;;;-12.60;99.90;;;;;;5033978;28;20184;-72
2022/10/25 02:12:37;;;;;;;6.00;2.33;;;-12.00;99.90;;;;;;5046350;28;20192;-72
2022/10/25 02:15:39;;;;;;;6.27;2.20;;;-13.30;99.90;;;;;;5032379;28;20184;-72
2022/10/25 02:18:11;;;;;;;6.53;1.87;;;-13.40;99.90;;;;;;5022472;28;20539;-71
2022/10/25 02:20:40;;;;;;;8.43;2.23;;;-12.70;99.90;;;;;;5028753;28;20188;-71
2022/10/25 02:23:06;;;;;;;7.10;2.37;;;-11.20;99.90;;;;;;5020829;28;20229;-73
2022/10/25 02:25:34;;;;;;;6.80;1.43;;;-11.70;99.90;;;;;;5034192;28;20188;-71
2022/10/25 02:28:05;;;;;;;12.00;2.43;;;-11.70;99.90;;;;;;5033418;28;20183;-72
2022/10/25 02:30:33;;;;;;;6.97;2.10;;;-12.80;99.90;;;;;;5035569;28;20618;-72
2022/10/25 02:33:00;;;;;;;8.80;1.80;;;-13.10;99.90;;;;;;5032395;28;20191;-71
2022/10/25 02:35:26;;;;;;;7.13;2.07;;;-9.40;99.90;;;;;;5032547;28;20192;-72
2022/10/25 02:37:52;;;;;;;3.80;1.80;;;-10.00;99.90;;;;;;5031085;28;20585;-72
2022/10/25 02:40:18;;;;;;;6.30;1.90;;;-9.20;99.90;;;;;;5032582;28;20484;-73
2022/10/25 02:42:44;;;;;;;10.43;2.73;;;-9.10;99.90;;;;;;5029846;28;20232;-72
2022/10/25 02:45:09;;;;;;;5.27;1.70;;;-9.60;99.90;;;;;;5018999;28;20173;-73
2022/10/25 02:47:35;;;;;;;10.30;2.07;;;-9.20;99.90;;;;;;5018882;28;20185;-73
2022/10/25 02:50:01;;;;;;;6.70;1.90;;;-11.40;99.90;;;;;;5032841;28;20183;-73
2022/10/25 02:52:27;;;;;;;4.37;1.43;;;-13.00;99.90;;;;;;5036545;28;20222;-72
2022/10/25 02:54:53;;;;;;;5.93;1.87;;;-10.50;99.90;;;;;;5036508;28;20192;-72
2022/10/25 02:57:19;;;;;;;8.97;2.20;;;-9.20;99.90;;;;;;5036422;28;20188;-72
2022/10/25 02:59:44;;;;;;;5.17;1.47;;;-9.00;99.90;;;;;;5030511;28;20255;-73
2022/10/25 03:02:10;;;;;;;11.67;3.07;;;-9.70;99.90;;;;;;5026329;28;20670;-73
2022/10/25 03:04:36;;;;;;;2.83;1.60;;;-10.40;99.90;;;;;;5026179;28;20242;-73
2022/10/25 03:07:02;;;;;;;8.13;2.63;;;-10.60;99.90;;;;;;5029044;28;20192;-74
2022/10/25 03:09:27;;;;;;;7.87;1.93;;;-11.00;99.90;;;;;;5017420;28;20177;-72
2022/10/25 03:11:53;;;;;;;7.63;2.70;;;-12.80;99.90;;;;;;5035517;28;20195;-72
2022/10/25 03:14:19;;;;;;;4.93;2.63;;;-12.30;99.90;;;;;;5036276;28;20266;-74
2022/10/25 03:16:45;;;;;;;5.87;1.97;;;-11.80;99.90;;;;;;5022194;28;20294;-73
2022/10/25 03:19:10;;;;;;;5.10;3.20;;;-10.30;99.90;;;;;;5032181;28;20192;-72
2022/10/25 03:21:36;;;;;;;8.17;2.77;;;-12.30;99.90;;;;;;5046040;28;20536;-73
2022/10/25 03:24:02;;;;;;;11.83;2.83;;;-13.30;99.90;;;;;;5026349;28;20193;-72
2022/10/25 03:26:28;;;;;;;6.43;2.07;;;-15.30;99.90;;;;;;5031845;28;20187;-74
2022/10/25 03:28:54;;;;;;;7.00;2.80;;;-12.50;99.90;;;;;;5036251;28;20192;-75
2022/10/25 03:31:19;;;;;;;6.37;2.77;;;-11.20;99.90;;;;;;5031640;28;20204;-73
2022/10/25 03:33:46;;;;;;;6.27;2.97;;;-10.90;99.90;;;;;;5034096;28;20189;-73
2022/10/25 03:36:11;;;;;;;3.77;1.97;;;-9.00;99.90;;;;;;5026548;28;20625;-73
2022/10/25 03:38:37;;;;;;;13.00;3.77;;;-12.30;99.90;;;;;;5027502;28;20190;-72
2022/10/25 03:41:03;;;;;;;12.77;2.50;;;-12.50;99.90;;;;;;5034232;28;20266;-72
2022/10/25 03:43:29;;;;;;;6.57;3.20;;;-11.30;99.90;;;;;;5035770;28;20295;-73
2022/10/25 03:45:54;;;;;;;5.13;2.23;;;-10.80;99.90;;;;;;5035869;28;20268;-74
2022/10/25 03:48:20;;;;;;;4.13;2.13;;;-10.40;99.90;;;;;;5028664;28;20504;-74
2022/10/25 03:50:46;;;;;;;7.43;2.33;;;-11.40;99.90;;;;;;5035775;28;20184;-73
2022/10/25 03:53:12;;;;;;;3.97;2.27;;;-12.00;99.90;;;;;;5031017;28;20499;-73
2022/10/25 03:55:38;;;;;;;7.27;3.30;;;-11.50;99.90;;;;;;5045729;28;20191;-73
2022/10/25 03:58:03;;;;;;;4.90;2.00;;;-12.60;99.90;;;;;;5035367;28;20196;-72
2022/10/25 04:00:29;;;;;;;15.03;4.83;;;-12.20;99.90;;;;;;5035178;28;20249;-73
2022/10/25 04:02:59;;;;;;;8.37;3.27;;;-14.10;99.90;;;;;;5026403;28;20231;-73
2022/10/25 04:05:26;;;;;;;11.30;3.30;;;-11.90;99.90;;;;;;5025899;28;20250;-73
2022/10/25 04:07:52;;;;;;;23.53;4.13;;;-13.60;99.90;;;;;;5030085;28;20265;-74
2022/10/25 04:10:18;;;;;;;9.50;2.67;;;-14.70;99.90;;;;;;5024987;28;20260;-74
2022/10/25 04:12:45;;;;;;;8.53;3.53;;;-12.60;99.90;;;;;;5019366;28;20278;-73
2022/10/25 04:15:11;;;;;;;8.23;3.90;;;-10.80;99.90;;;;;;5034392;28;20234;-74
2022/10/25 04:17:37;;;;;;;14.03;3.37;;;-9.50;99.90;;;;;;5029938;28;20204;-75
2022/10/25 04:20:03;;;;;;;9.13;3.93;;;-10.00;99.90;;;;;;5035375;28;20563;-74
2022/10/25 04:22:28;;;;;;;9.33;4.37;;;-10.20;99.90;;;;;;5045018;28;20281;-74
2022/10/25 04:24:54;;;;;;;11.07;3.77;;;-9.70;99.90;;;;;;5034753;28;20584;-73
2022/10/25 04:27:20;;;;;;;10.07;4.00;;;-10.70;99.90;;;;;;5034303;28;20196;-75
2022/10/25 04:29:45;;;;;;;14.60;3.97;;;-11.00;99.90;;;;;;5030817;28;20260;-73
2022/10/25 04:32:12;;;;;;;13.40;3.57;;;-12.40;99.90;;;;;;5052174;28;20185;-72
2022/10/25 04:34:38;;;;;;;10.07;3.57;;;-10.10;99.90;;;;;;5035119;28;20262;-74
2022/10/25 04:37:04;;;;;;;6.13;2.60;;;-8.30;99.90;;;;;;5041025;28;20585;-71
2022/10/25 04:39:31;;;;;;;8.77;2.90;;;-9.30;99.90;;;;;;5036229;28;20304;-72
2022/10/25 04:41:57;;;;;;;7.33;2.87;;;-11.40;99.90;;;;;;5033060;28;20223;-73
2022/10/25 04:44:24;;;;;;;8.63;4.33;;;-10.60;99.90;;;;;;5023197;28;20196;-73
2022/10/25 04:46:50;;;;;;;13.53;3.27;;;-11.80;99.90;;;;;;5025280;28;20553;-72
2022/10/25 04:49:16;;;;;;;9.33;2.67;;;-12.10;99.90;;;;;;5029565;28;20228;-73
2022/10/25 04:51:42;;;;;;;13.80;3.87;;;-10.90;99.90;;;;;;5027289;28;20191;-72
2022/10/25 04:54:08;;;;;;;7.90;2.97;;;-11.00;99.90;;;;;;5052483;28;20195;-71
2022/10/25 04:56:34;;;;;;;10.27;2.93;;;-10.50;99.90;;;;;;5048238;28;20185;-73
2022/10/25 04:58:59;;;;;;;8.77;2.60;;;-11.80;99.90;;;;;;5048723;28;20208;-72
2022/10/25 05:01:25;;;;;;;11.70;3.63;;;-12.80;99.90;;;;;;5029232;28;20269;-75
2022/10/25 05:03:51;;;;;;;7.87;3.20;;;-11.20;99.90;;;;;;5035029;28;20177;-72
2022/10/25 05:06:25;;;;;;;6.43;3.20;;;-11.60;99.90;;;;;;5028167;28;20200;-75
2022/10/25 05:08:52;;;;;;;5.40;2.23;;;-11.80;99.90;;;;;;5038444;28;20200;-74
2022/10/25 05:11:21;;;;;;;12.13;3.17;;;-10.90;99.90;;;;;;5035505;28;20593;-73
2022/10/25 05:13:47;;;;;;;7.10;3.00;;;-11.90;99.90;;;;;;5035438;28;20207;-73
2022/10/25 05:16:23;;;;;;;12.33;2.50;;;-12.40;99.90;;;;;;5024876;28;20190;-73
2022/10/25 05:18:52;;;;;;;12.50;2.80;;;-12.40;99.90;;;;;;5031195;28;20187;-74
2022/10/25 05:21:18;;;;;;;5.33;2.17;;;-12.30;99.90;;;;;;5032133;28;20185;-73
2022/10/25 05:23:44;;;;;;;9.27;3.27;;;-9.20;99.90;;;;;;5037166;28;20575;-74
2022/10/25 05:26:13;;;;;;;12.23;3.53;;;-10.90;99.90;;;;;;5038474;28;20589;-73
2022/10/25 05:28:40;;;;;;;10.30;3.30;;;-13.70;99.90;;;;;;5042718;28;20184;-74
2022/10/25 05:31:16;;;;;;;8.10;2.90;;;-12.90;99.90;;;;;;5041505;28;20192;-72
2022/10/25 05:33:43;;;;;;;5.13;3.20;;;-12.80;99.90;;;;;;5042072;28;20604;-75
2022/10/25 05:36:11;;;;;;;8.17;2.93;;;-11.40;99.90;;;;;;5028604;28;20183;-72
2022/10/25 05:38:37;;;;;;;11.23;2.67;;;-11.40;99.90;;;;;;5030951;28;20284;-72
2022/10/25 05:41:03;;;;;;;7.30;2.93;;;-12.30;99.90;;;;;;5033476;28;20632;-72
2022/10/25 05:43:29;;;;;;;9.87;2.80;;;-13.10;99.90;;;;;;5039042;28;20218;-72
2022/10/25 05:46:05;;;;;;;16.87;3.00;;;-12.70;99.90;;;;;;5028156;28;20211;-72
2022/10/25 05:48:31;;;;;;;10.70;2.53;;;-12.10;99.90;;;;;;5031317;28;20184;-72
2022/10/25 05:51:08;;;;;;;13.03;4.33;;;-11.40;99.90;;;;;;5037753;28;20696;-72
2022/10/25 05:53:34;;;;;;;5.30;2.60;;;-10.10;99.90;;;;;;5047818;28;20223;-72
2022/10/25 05:56:00;;;;;;;14.03;3.10;;;-15.50;99.90;;;;;;5035488;28;20266;-73
2022/10/25 05:58:25;;;;;;;11.33;3.10;;;-11.60;99.90;;;;;;5036331;28;20196;-73
2022/10/25 06:00:51;;;;;;;5.90;2.50;;;-12.10;99.90;;;;;;5032183;28;20197;-74
2022/10/25 06:03:17;;;;;;;6.23;3.47;;;-14.00;99.90;;;;;;5026721;28;20279;-76
2022/10/25 06:05:42;;;;;;;5.17;2.10;;;-12.40;99.90;;;;;;5036867;28;20177;-74
2022/10/25 06:08:08;;;;;;;6.13;2.53;;;-12.30;99.90;;;;;;5035083;28;20184;-76
2022/10/25 06:10:34;;;;;;;11.43;2.90;;;-12.40;99.90;;;;;;5033959;28;20271;-74
2022/10/25 06:13:00;;;;;;;6.70;3.00;;;-11.90;99.90;;;;;;5018560;28;20224;-75
2022/10/25 06:15:26;;;;;;;9.80;3.13;;;-12.20;99.90;;;;;;5032005;28;20187;-74
2022/10/25 06:17:52;;;;;;;5.37;2.60;;;-11.20;99.90;;;;;;5037367;28;20260;-75
2022/10/25 06:20:18;;;;;;;8.23;2.90;;;-13.90;99.90;;;;;;5033552;28;20220;-73
2022/10/25 06:22:44;;;;;;;15.57;4.43;;;-9.20;99.90;;;;;;5029133;28;20236;-72
2022/10/25 06:25:09;;;;;;;19.67;11.13;;;-11.40;99.90;;;;;;5025386;28;20187;-73
2022/10/25 06:27:35;;;;;;;13.70;7.47;;;-13.60;99.90;;;;;;5029834;28;20188;-73
2022/10/25 06:30:01;;;;;;;11.40;4.77;;;-11.70;99.90;;;;;;5024178;28;20207;-73
2022/10/25 06:32:27;;;;;;;7.03;2.30;;;-10.10;99.90;;;;;;5036959;28;20271;-74
2022/10/25 06:34:53;;;;;;;11.37;2.83;;;-10.80;99.90;;;;;;5051926;28;20192;-74
2022/10/25 06:37:19;;;;;;;7.33;3.10;;;-11.00;99.90;;;;;;5024871;28;20195;-73
2022/10/25 06:39:44;;;;;;;20.90;4.63;;;-11.30;99.90;;;;;;5034411;28;20208;-71
2022/10/25 06:42:10;;;;;;;16.47;3.67;;;-12.80;99.90;;;;;;5026664;28;20604;-72
2022/10/25 06:44:36;;;;;;;8.77;3.13;;;-12.40;99.90;;;;;;5029338;28;20592;-73
2022/10/25 06:47:02;;;;;;;8.67;2.27;;;-11.00;99.90;;;;;;5029903;28;20173;-72
2022/10/25 06:49:27;;;;;;;5.00;2.00;;;-10.90;99.90;;;;;;5035412;28;20192;-72
2022/10/25 06:51:53;;;;;;;9.73;2.93;;;-10.60;99.90;;;;;;5029431;28;20188;-73
2022/10/25 06:54:19;;;;;;;7.80;2.53;;;-13.20;99.90;;;;;;5032659;28;20227;-75
2022/10/25 06:56:45;;;;;;;15.63;3.07;;;-11.60;99.90;;;;;;5024938;28;20227;-73
2022/10/25 06:59:10;;;;;;;12.23;2.80;;;-11.20;99.90;;;;;;5036284;28;20216;-76
2022/10/25 07:01:36;;;;;;;12.47;3.53;;;-12.30;99.90;;;;;;5036302;28;20224;-77
2022/10/25 07:04:02;;;;;;;11.67;3.17;;;-13.50;99.90;;;;;;5030765;28;20185;-77
2022/10/25 07:06:34;;;;;;;7.37;3.37;;;-15.80;99.90;;;;;;5035688;28;20237;-72
2022/10/25 07:09:00;;;;;;;7.87;2.50;;;-15.30;99.90;;;;;;5035317;28;20184;-75
2022/10/25 07:11:29;;;;;;;16.27;3.27;;;-14.70;99.90;;;;;;5031153;28;20186;-75
2022/10/25 07:13:57;;;;;;;12.97;3.70;;;-13.90;99.90;;;;;;5035804;28;20176;-73
2022/10/25 07:16:24;;;;;;;7.73;2.07;;;-16.30;99.90;;;;;;5029881;28;20184;-74
2022/10/25 07:18:49;;;;;;;13.20;2.57;;;-14.50;99.90;;;;;;5032052;28;20184;-75
2022/10/25 07:21:19;;;;;;;8.30;2.70;;;-15.10;99.90;;;;;;5030436;28;20596;-75
2022/10/25 07:23:46;;;;;;;5.77;2.27;;;-15.20;99.90;;;;;;5028547;28;20215;-76
2022/10/25 07:26:15;;;;;;;5.47;2.43;;;-14.70;99.90;;;;;;5035252;28;20190;-76
2022/10/25 07:28:42;;;;;;;12.03;4.07;;;-14.50;99.90;;;;;;5036027;28;20242;-74
2022/10/25 07:31:12;;;;;;;9.63;3.63;;;-15.10;99.90;;;;;;5035742;28;20184;-77
2022/10/25 07:33:38;;;;;;;19.37;5.03;;;-13.40;99.90;;;;;;5035311;28;20193;-76
2022/10/25 07:36:04;;;;;;;13.73;2.80;;;-11.10;99.90;;;;;;5035568;28;20609;-73
2022/10/25 07:38:30;;;;;;;9.43;3.67;;;-8.90;99.90;;;;;;5035033;28;20196;-74
2022/10/25 07:40:56;;;;;;;8.97;2.93;;;-12.20;99.90;;;;;;5024498;28;20490;-75
2022/10/25 07:43:23;;;;;;;7.87;3.03;;;-13.40;99.90;;;;;;5026026;28;20234;-74
2022/10/25 07:45:49;;;;;;;5.20;2.20;;;-15.90;99.90;;;;;;5018689;28;20181;-76
2022/10/25 07:48:16;;;;;;;10.10;2.77;;;-14.10;99.90;;;;;;5029332;28;20195;-71
2022/10/25 07:50:41;;;;;;;9.10;2.60;;;-13.40;99.90;;;;;;5030341;28;20585;-71
2022/10/25 07:53:07;;;;;;;7.00;2.00;;;-13.80;99.90;;;;;;5026355;28;20186;-75
2022/10/25 07:55:33;;;;;;;17.23;2.97;;;-12.90;99.90;;;;;;5029066;28;20181;-71
2022/10/25 07:58:04;;;;;;;14.20;3.33;;;-11.60;99.90;;;;;;5027966;28;20588;-74
2022/10/25 08:00:29;;;;;;;14.10;3.70;;;-13.40;99.90;;;;;;5027992;28;20216;-73
2022/10/25 08:02:55;;;;;;;8.67;2.67;;;-13.00;99.90;;;;;;5035352;28;20532;-70
2022/10/25 08:05:21;;;;;;;6.00;2.77;;;-10.90;99.90;;;;;;5031423;28;20585;-71
2022/10/25 08:07:49;;;;;;;9.13;3.53;;;-13.30;99.90;;;;;;5034201;28;20563;-76
2022/10/25 08:10:15;;;;;;;14.03;4.13;;;-11.90;99.90;;;;;;5016759;28;20192;-70
2022/10/25 08:12:41;;;;;;;8.33;3.30;;;-11.80;99.90;;;;;;5031067;28;20270;-74
2022/10/25 08:15:07;;;;;;;10.97;3.77;;;-12.20;99.90;;;;;;5028312;28;20280;-72
2022/10/25 08:17:33;;;;;;;12.20;3.50;;;-14.70;99.90;;;;;;5035142;28;20199;-71
2022/10/25 08:19:59;;;;;;;10.07;3.07;;;-11.90;99.90;;;;;;5035296;28;20211;-70
2022/10/25 08:22:24;;;;;;;10.90;3.83;;;-11.80;99.90;;;;;;5029910;28;20236;-72
2022/10/25 08:24:50;;;;;;;7.27;3.30;;;-11.30;99.90;;;;;;5032871;28;20181;-69
2022/10/25 08:27:16;;;;;;;10.20;4.17;;;-10.40;99.90;;;;;;5015914;28;20188;-72
2022/10/25 08:29:42;;;;;;;7.90;3.47;;;-10.40;99.90;;;;;;5037188;28;20541;-71
2022/10/25 08:32:07;;;;;;;9.93;3.10;;;-11.60;99.90;;;;;;5033870;28;20576;-70
2022/10/25 08:34:33;;;;;;;6.87;3.07;;;-10.80;99.90;;;;;;5026233;28;20195;-73
2022/10/25 08:36:59;;;;;;;11.27;3.03;;;-9.00;99.90;;;;;;5021518;28;20315;-72
2022/10/25 08:39:24;;;;;;;11.63;3.17;;;-10.90;99.90;;;;;;5036841;28;20271;-71
2022/10/25 08:42:00;;;;;;;12.13;3.43;;;-11.70;99.90;;;;;;5028553;28;20219;-70
2022/10/25 08:44:47;;;;;;;10.30;3.67;;;-9.70;99.90;;;;;;5023203;28;20188;-75
2022/10/25 08:47:19;;;;;;;12.83;2.87;;;-11.40;99.90;;;;;;5030265;28;20233;-71
2022/10/25 08:49:54;;;;;;;5.53;2.57;;;-11.40;99.90;;;;;;5038834;28;20180;-71
2022/10/25 08:52:45;;;;;;;9.33;2.93;;;-13.10;99.90;;;;;;5027440;28;20193;-73
2022/10/25 08:55:33;;;;;;;13.77;3.80;;;-12.00;99.90;;;;;;5036432;28;20192;-70
2022/10/25 08:58:01;;;;;;;9.50;3.73;;;-14.60;99.90;;;;;;5053931;28;20191;-72
2022/10/25 09:00:36;;;;;;;9.77;3.50;;;-13.30;99.90;;;;;;5033258;28;20237;-72
2022/10/25 09:03:03;;;;;;;7.60;2.73;;;-13.50;99.90;;;;;;5035896;28;20204;-72
2022/10/25 09:05:37;;;;;;;5.13;2.47;;;-13.20;99.90;;;;;;5030603;28;20181;-72
2022/10/25 09:08:22;;;;;;;19.10;3.27;;;-14.10;99.90;;;;;;5038879;28;20190;-76
2022/10/25 09:10:50;;;;;;;14.10;3.87;;;-13.30;99.90;;;;;;5038708;28;20224;-72
2022/10/25 09:13:34;;;;;;;14.47;4.10;;;-13.50;99.90;;;;;;5053647;28;20184;-75
2022/10/25 09:16:45;;;;;;;8.07;3.07;;;-11.60;99.90;;;;;;5048973;28;20180;-71
2022/10/25 09:19:35;;;;;;;11.83;4.57;;;-11.00;99.90;;;;;;5047766;28;20196;-73
2022/10/25 09:22:25;;;;;;;6.07;3.30;;;-14.80;99.90;;;;;;5024093;28;20213;-71
2022/10/25 09:24:59;;;;;;;10.07;2.87;;;-15.50;99.90;;;;;;5038597;28;20226;-74
2022/10/25 09:27:42;;;;;;;10.10;3.83;;;-15.80;99.90;;;;;;5028497;28;20602;-75
2022/10/25 09:30:10;;;;;;;10.03;4.07;;;-13.60;99.90;;;;;;5027313;28;20652;-71
2022/10/25 09:32:44;;;;;;;11.20;4.43;;;-15.00;99.90;;;;;;5037389;28;20286;-73
2022/10/25 09:35:36;;;;;;;12.60;4.10;;;-15.10;99.90;;;;;;5019035;28;20181;-71
2022/10/25 09:38:29;;;;;;;8.80;3.40;;;-14.80;99.90;;;;;;5019260;28;20207;-72
2022/10/25 09:41:04;;;;;;;9.70;4.40;;;-13.90;99.90;;;;;;5017407;28;20195;-72
2022/10/25 09:43:48;;;;;;;8.00;3.23;;;-14.70;99.90;;;;;;5030364;28;20605;-68
2022/10/25 09:46:40;;;;;;;6.53;3.23;;;-12.70;99.90;;;;;;5030223;28;20607;-71
2022/10/25 09:49:15;;;;;;;11.30;2.67;;;-12.80;99.90;;;;;;5033897;28;20501;-72
2022/10/25 09:51:56;;;;;;;8.57;3.10;;;-12.30;99.90;;;;;;5052984;28;20614;-74
2022/10/25 09:54:33;;;;;;;16.67;5.07;;;-11.80;99.90;;;;;;5029643;28;20211;-76
2022/10/25 09:56:58;;;;;;;11.63;3.63;;;-13.00;99.90;;;;;;5021406;28;20211;-75
2022/10/25 09:59:26;;;;;;;12.20;4.17;;;-11.50;99.90;;;;;;5031332;28;20207;-74
2022/10/25 10:01:52;;;;;;;7.37;3.37;;;-14.50;99.90;;;;;;5036301;28;20220;-72
2022/10/25 10:04:28;;;;;;;12.13;4.17;;;-15.10;99.90;;;;;;5036991;28;20491;-73
2022/10/25 10:07:03;;;;;;;8.67;3.70;;;-21.00;99.90;;;;;;5031247;28;20200;-72
2022/10/25 10:09:31;;;;;;;7.03;3.50;;;-23.70;99.90;;;;;;5034405;28;20182;-72
2022/10/25 10:11:59;;;;;;;7.30;3.60;;;-17.60;99.90;;;;;;5031695;28;20177;-73
2022/10/25 10:14:36;;;;;;;7.17;3.07;;;-17.20;99.90;;;;;;5033239;28;20258;-73
2022/10/25 10:17:05;;;;;;;13.93;4.73;;;-16.60;99.90;;;;;;5037256;28;20490;-74
2022/10/25 10:19:30;;;;;;;9.87;4.30;;;-16.70;99.90;;;;;;5030437;28;20203;-73
2022/10/25 10:22:05;;;;;;;8.73;3.30;;;-14.80;99.90;;;;;;5044374;28;20631;-72
2022/10/25 10:24:36;;;;;;;7.80;3.40;;;-16.60;99.90;;;;;;5034824;28;20184;-75
2022/10/25 10:27:09;;;;;;;19.20;4.80;;;-12.80;99.90;;;;;;5026507;28;20177;-72
2022/10/25 10:29:57;;;;;;;4.27;2.70;;;-16.20;99.90;;;;;;5022560;28;20185;-71
2022/10/25 10:32:38;;;;;;;9.10;4.53;;;-17.40;99.90;;;;;;5029898;28;20308;-73
2022/10/25 10:35:28;;;;;;;3.90;2.23;;;-19.10;99.90;;;;;;5031092;28;20316;-71
2022/10/25 10:38:23;;;;;;;9.60;3.67;;;-19.50;99.90;;;;;;5036771;28;20246;-71
2022/10/25 10:40:51;;;;;;;8.17;3.30;;;-17.70;99.90;;;;;;5030850;28;20535;-73
2022/10/25 10:43:30;;;;;;;5.40;2.27;;;-20.30;99.90;;;;;;5030742;28;20259;-71
2022/10/25 10:46:18;;;;;;;4.10;2.63;;;-19.50;99.90;;;;;;5031554;28;20177;-71
2022/10/25 10:48:51;;;;;;;6.37;2.43;;;-18.90;99.90;;;;;;5035276;28;20543;-71
2022/10/25 10:51:20;;;;;;;4.13;3.30;;;-15.80;99.90;;;;;;5031203;28;20192;-71
2022/10/25 10:53:46;;;;;;;8.07;2.77;;;-16.80;99.90;;;;;;5020220;28;20178;-73
2022/10/25 10:56:22;;;;;;;7.83;3.00;;;-21.10;99.90;;;;;;5034468;28;20549;-72
2022/10/25 10:58:49;;;;;;;8.53;3.13;;;-21.10;99.90;;;;;;5035439;28;20246;-72
2022/10/25 11:01:32;;;;;;;6.70;2.93;;;-23.40;99.90;;;;;;5024930;28;20204;-73
2022/10/25 11:03:59;;;;;;;6.87;2.03;;;-21.10;99.90;;;;;;5023364;28;20599;-73
2022/10/25 11:06:31;;;;;;;5.50;2.37;;;-28.00;99.90;;;;;;5026588;28;21107;-70
2022/10/25 11:09:24;;;;;;;7.93;2.83;;;-21.60;99.90;;;;;;5031429;28;20258;-70
2022/10/25 11:12:09;;;;;;;8.67;3.13;;;-18.20;99.90;;;;;;5033138;28;20327;-71
2022/10/25 11:14:35;;;;;;;4.97;2.17;;;-20.00;99.90;;;;;;5036312;28;20181;-72
2022/10/25 11:17:25;;;;;;;3.77;1.83;;;-22.40;99.90;;;;;;5026818;28;20263;-74
2022/10/25 11:20:09;;;;;;;3.93;1.80;;;-24.70;99.90;;;;;;5026762;28;20204;-72
2022/10/25 11:22:54;;;;;;;7.07;2.27;;;-21.00;99.90;;;;;;5042413;28;20220;-71
2022/10/25 11:25:43;;;;;;;9.93;2.23;;;-25.80;99.90;;;;;;5024023;28;20194;-71
2022/10/25 11:28:23;;;;;;;5.73;1.63;;;-34.40;99.90;;;;;;5028167;28;20177;-73
2022/10/25 11:30:55;;;;;;;5.00;1.50;;;-40.00;99.90;;;;;;5029615;28;20255;-71
2022/10/25 11:33:39;;;;;;;4.47;2.47;;;-34.10;99.90;;;;;;5030335;28;20286;-72
2022/10/25 11:36:26;;;;;;;3.23;1.10;;;-40.00;99.90;;;;;;5028584;28;20188;-72
2022/10/25 11:39:14;;;;;;;6.47;1.57;;;-40.00;99.90;;;;;;5026491;28;20623;-72
2022/10/25 11:41:44;;;;;;;5.77;2.40;;;-40.00;99.90;;;;;;5024213;28;20259;-74
2022/10/25 11:44:48;;;;;;;3.57;1.37;;;-40.00;99.90;;;;;;5035430;28;20207;-70
2022/10/25 11:47:14;;;;;;;6.77;2.37;;;-40.00;99.90;;;;;;5016295;28;20192;-70
2022/10/25 11:50:06;;;;;;;8.13;1.77;;;-40.00;99.90;;;;;;5027650;28;20580;-70
2022/10/25 11:52:48;;;;;;;7.60;2.10;;;-40.00;99.90;;;;;;5016760;28;20182;-72
2022/10/25 11:55:39;;;;;;;2.37;1.40;;;-39.50;99.90;;;;;;5025962;28;20195;-70
2022/10/25 11:58:29;;;;;;;3.53;1.80;;;-23.90;99.90;;;;;;5021443;28;20168;-71
2022/10/25 12:01:10;;;;;;;4.17;1.43;;;-17.70;99.90;;;;;;5033224;28;20635;-72
2022/10/25 12:03:58;;;;;;;6.57;1.30;;;-18.00;99.90;;;;;;5039019;28;20248;-74
2022/10/25 12:06:49;;;;;;;7.17;1.53;;;-16.20;99.90;;;;;;5016974;28;20180;-76
2022/10/25 12:09:32;;;;;;;3.17;1.30;;;-22.10;99.90;;;;;;5027017;28;20206;-76
2022/10/25 12:12:06;;;;;;;3.27;1.03;;;-34.40;99.90;;;;;;5033631;28;20176;-72
2022/10/25 12:14:36;;;;;;;4.40;1.70;;;-40.00;99.90;;;;;;5029078;28;20189;-73
2022/10/25 12:17:06;;;;;;;3.43;1.20;;;-40.00;99.90;;;;;;5034539;28;20199;-72
2022/10/25 12:19:42;;;;;;;5.90;1.70;;;-40.00;96.20;;;;;;5027151;28;20177;-73
2022/10/25 12:22:16;;;;;;;5.07;2.63;;;-40.00;92.60;;;;;;5033136;28;20200;-74
2022/10/25 12:24:54;;;;;;;3.87;1.43;;;-40.00;90.70;;;;;;5033997;28;20184;-76
2022/10/25 12:27:21;;;;;;;9.73;2.67;;;-40.00;88.20;;;;;;5035109;28;20188;-74
2022/10/25 12:29:53;;;;;;;3.37;1.40;;;-40.00;86.70;;;;;;5035170;28;20588;-74
2022/10/25 12:32:40;;;;;;;5.53;1.93;;;-40.00;82.90;;;;;;5034764;28;20188;-75
2022/10/25 12:35:22;;;;;;;4.47;1.67;;;-40.00;83.70;;;;;;5029281;28;20193;-73
2022/10/25 12:37:55;;;;;;;4.20;2.10;;;-40.00;82.10;;;;;;5020389;28;20180;-73
2022/10/25 12:40:22;;;;;;;7.20;1.80;;;-40.00;82.20;;;;;;5026985;28;20181;-73
2022/10/25 12:42:53;;;;;;;5.60;2.30;;;-40.00;82.20;;;;;;5025798;28;20339;-75
2022/10/25 12:45:29;;;;;;;3.00;1.40;;;-40.00;78.40;;;;;;5027259;28;20185;-74
2022/10/25 12:48:29;;;;;;;4.00;1.83;;;-40.00;75.00;;;;;;5031862;28;20183;-75
2022/10/25 12:51:16;;;;;;;22.27;5.70;;;-40.00;80.80;;;;;;5027003;28;20490;-78
2022/10/25 12:54:14;;;;;;;5.43;1.70;;;-40.00;90.00;;;;;;5040966;28;20185;-78
2022/10/25 12:57:09;;;;;;;2.73;1.13;;;-40.00;91.10;;;;;;5041434;28;20311;-77
2022/10/25 13:00:09;;;;;;;4.63;1.83;;;-40.00;86.70;;;;;;5022272;28;20270;-73